sensor_id;sensor_type;location;lat;lon;timestamp;P1;durP1;ratioP1;P2;durP2;ratioP2
23506;SDS011;11930;53.076;18.250;2023-04-19T00:01:07;6.80;;;2.87;;
23506;SDS011;11930;53.076;18.250;2023-04-19T00:03:34;5.23;;;2.87;;
23506;SDS011;11930;53.076;18.250;2023-04-19T00:06:00;7.63;;;2.90;;
23506;SDS011;11930;53.076;18.250;2023-04-19T00:08:27;4.90;;;2.80;;
23506;SDS011;11930;53.076;18.250;2023-04-19T00:10:53;7.27;;;2.90;;
23506;SDS011;11930;53.076;18.250;2023-04-19T00:13:20;8.77;;;3.17;;
23506;SDS011;11930;53.076;18.250;2023-04-19T00:15:46;6.97;;;3.30;;
23506;SDS011;11930;53.076;18.250;2023-04-19T00:18:12;6.80;;;3.10;;
23506;SDS011;11930;53.076;18.250;2023-04-19T00:20:38;6.20;;;2.90;;
23506;SDS011;11930;53.076;18.250;2023-04-19T00:23:04;7.37;;;3.60;;
23506;SDS011;11930;53.076;18.250;2023-04-19T00:25:30;5.53;;;3.00;;
23506;SDS011;11930;53.076;18.250;2023-04-19T00:27:59;9.40;;;3.50;;
23506;SDS011;11930;53.076;18.250;2023-04-19T00:30:25;9.17;;;3.50;;
23506;SDS011;11930;53.076;18.250;2023-04-19T00:32:52;5.73;;;2.90;;
23506;SDS011;11930;53.076;18.250;2023-04-19T00:35:18;8.27;;;3.17;;
23506;SDS011;11930;53.076;18.250;2023-04-19T00:37:45;9.30;;;3.20;;
23506;SDS011;11930;53.076;18.250;2023-04-19T00:40:12;7.53;;;3.43;;
23506;SDS011;11930;53.076;18.250;2023-04-19T00:42:39;8.17;;;3.00;;
23506;SDS011;11930;53.076;18.250;2023-04-19T00:45:05;5.83;;;3.03;;
23506;SDS011;11930;53.076;18.250;2023-04-19T00:47:31;7.80;;;3.13;;
23506;SDS011;11930;53.076;18.250;2023-04-19T00:49:57;6.30;;;2.97;;
23506;SDS011;11930;53.076;18.250;2023-04-19T00:52:24;8.97;;;3.13;;
23506;SDS011;11930;53.076;18.250;2023-04-19T00:54:51;7.90;;;3.10;;
23506;SDS011;11930;53.076;18.250;2023-04-19T00:57:19;7.97;;;3.10;;
23506;SDS011;11930;53.076;18.250;2023-04-19T00:59:49;5.70;;;2.90;;
23506;SDS011;11930;53.076;18.250;2023-04-19T01:02:16;7.50;;;3.13;;
23506;SDS011;11930;53.076;18.250;2023-04-19T01:04:43;7.87;;;3.23;;
23506;SDS011;11930;53.076;18.250;2023-04-19T01:07:09;6.63;;;3.03;;
23506;SDS011;11930;53.076;18.250;2023-04-19T01:09:38;7.37;;;3.47;;
23506;SDS011;11930;53.076;18.250;2023-04-19T01:12:06;8.10;;;3.43;;
23506;SDS011;11930;53.076;18.250;2023-04-19T01:14:33;7.60;;;3.20;;
23506;SDS011;11930;53.076;18.250;2023-04-19T01:16:59;8.77;;;3.00;;
23506;SDS011;11930;53.076;18.250;2023-04-19T01:19:26;7.60;;;3.13;;
23506;SDS011;11930;53.076;18.250;2023-04-19T01:21:52;8.17;;;3.27;;
23506;SDS011;11930;53.076;18.250;2023-04-19T01:24:20;7.00;;;3.37;;
23506;SDS011;11930;53.076;18.250;2023-04-19T01:26:48;6.87;;;3.27;;
23506;SDS011;11930;53.076;18.250;2023-04-19T01:29:15;6.73;;;2.90;;
23506;SDS011;11930;53.076;18.250;2023-04-19T01:31:44;7.50;;;2.80;;
23506;SDS011;11930;53.076;18.250;2023-04-19T01:34:15;6.73;;;3.07;;
23506;SDS011;11930;53.076;18.250;2023-04-19T01:36:42;8.67;;;2.87;;
23506;SDS011;11930;53.076;18.250;2023-04-19T01:39:08;7.77;;;2.77;;
23506;SDS011;11930;53.076;18.250;2023-04-19T01:41:38;9.20;;;2.93;;
23506;SDS011;11930;53.076;18.250;2023-04-19T01:44:05;7.77;;;3.13;;
23506;SDS011;11930;53.076;18.250;2023-04-19T01:46:31;7.10;;;2.90;;
23506;SDS011;11930;53.076;18.250;2023-04-19T01:48:57;5.87;;;3.17;;
23506;SDS011;11930;53.076;18.250;2023-04-19T01:51:24;6.30;;;3.13;;
23506;SDS011;11930;53.076;18.250;2023-04-19T01:53:50;6.63;;;2.50;;
23506;SDS011;11930;53.076;18.250;2023-04-19T01:56:19;10.07;;;3.30;;
23506;SDS011;11930;53.076;18.250;2023-04-19T01:58:46;4.43;;;2.50;;
23506;SDS011;11930;53.076;18.250;2023-04-19T02:01:13;8.60;;;3.90;;
23506;SDS011;11930;53.076;18.250;2023-04-19T02:03:39;8.53;;;3.13;;
23506;SDS011;11930;53.076;18.250;2023-04-19T02:06:09;7.57;;;3.03;;
23506;SDS011;11930;53.076;18.250;2023-04-19T02:08:37;8.03;;;2.90;;
23506;SDS011;11930;53.076;18.250;2023-04-19T02:11:07;6.83;;;2.70;;
23506;SDS011;11930;53.076;18.250;2023-04-19T02:13:34;5.57;;;3.00;;
23506;SDS011;11930;53.076;18.250;2023-04-19T02:16:01;6.47;;;3.33;;
23506;SDS011;11930;53.076;18.250;2023-04-19T02:18:28;8.87;;;2.80;;
23506;SDS011;11930;53.076;18.250;2023-04-19T02:20:55;7.80;;;3.00;;
23506;SDS011;11930;53.076;18.250;2023-04-19T02:23:21;7.80;;;3.23;;
23506;SDS011;11930;53.076;18.250;2023-04-19T02:25:48;7.17;;;3.07;;
23506;SDS011;11930;53.076;18.250;2023-04-19T02:28:14;5.67;;;2.87;;
23506;SDS011;11930;53.076;18.250;2023-04-19T02:30:41;6.90;;;3.07;;
23506;SDS011;11930;53.076;18.250;2023-04-19T02:33:07;6.70;;;3.03;;
23506;SDS011;11930;53.076;18.250;2023-04-19T02:35:34;6.07;;;3.03;;
23506;SDS011;11930;53.076;18.250;2023-04-19T02:38:01;9.80;;;3.20;;
23506;SDS011;11930;53.076;18.250;2023-04-19T02:40:28;5.60;;;2.63;;
23506;SDS011;11930;53.076;18.250;2023-04-19T02:42:57;4.27;;;2.77;;
23506;SDS011;11930;53.076;18.250;2023-04-19T02:45:24;6.13;;;3.00;;
23506;SDS011;11930;53.076;18.250;2023-04-19T02:47:53;6.03;;;3.30;;
23506;SDS011;11930;53.076;18.250;2023-04-19T02:50:19;6.40;;;3.30;;
23506;SDS011;11930;53.076;18.250;2023-04-19T02:52:49;9.03;;;3.73;;
23506;SDS011;11930;53.076;18.250;2023-04-19T02:55:18;11.77;;;3.53;;
23506;SDS011;11930;53.076;18.250;2023-04-19T02:57:47;6.80;;;3.10;;
23506;SDS011;11930;53.076;18.250;2023-04-19T03:00:14;6.83;;;3.20;;
23506;SDS011;11930;53.076;18.250;2023-04-19T03:02:49;5.57;;;2.80;;
23506;SDS011;11930;53.076;18.250;2023-04-19T03:05:16;7.33;;;2.90;;
23506;SDS011;11930;53.076;18.250;2023-04-19T03:07:43;9.67;;;3.63;;
23506;SDS011;11930;53.076;18.250;2023-04-19T03:10:10;10.27;;;3.63;;
23506;SDS011;11930;53.076;18.250;2023-04-19T03:12:36;8.93;;;3.53;;
23506;SDS011;11930;53.076;18.250;2023-04-19T03:15:02;8.83;;;3.23;;
23506;SDS011;11930;53.076;18.250;2023-04-19T03:17:29;7.33;;;3.17;;
23506;SDS011;11930;53.076;18.250;2023-04-19T03:19:56;6.27;;;3.10;;
23506;SDS011;11930;53.076;18.250;2023-04-19T03:22:22;7.03;;;3.20;;
23506;SDS011;11930;53.076;18.250;2023-04-19T03:24:48;7.10;;;3.20;;
23506;SDS011;11930;53.076;18.250;2023-04-19T03:27:20;7.17;;;3.50;;
23506;SDS011;11930;53.076;18.250;2023-04-19T03:29:51;7.03;;;3.20;;
23506;SDS011;11930;53.076;18.250;2023-04-19T03:32:18;7.17;;;3.30;;
23506;SDS011;11930;53.076;18.250;2023-04-19T03:34:44;7.90;;;3.63;;
23506;SDS011;11930;53.076;18.250;2023-04-19T03:37:13;7.43;;;3.37;;
23506;SDS011;11930;53.076;18.250;2023-04-19T03:39:41;8.53;;;3.40;;
23506;SDS011;11930;53.076;18.250;2023-04-19T03:42:11;8.20;;;3.87;;
23506;SDS011;11930;53.076;18.250;2023-04-19T03:44:56;8.60;;;3.87;;
23506;SDS011;11930;53.076;18.250;2023-04-19T03:47:24;11.23;;;4.23;;
23506;SDS011;11930;53.076;18.250;2023-04-19T03:49:55;10.70;;;3.83;;
23506;SDS011;11930;53.076;18.250;2023-04-19T03:52:22;11.70;;;3.87;;
23506;SDS011;11930;53.076;18.250;2023-04-19T03:54:50;7.60;;;3.60;;
23506;SDS011;11930;53.076;18.250;2023-04-19T03:57:27;6.13;;;3.40;;
23506;SDS011;11930;53.076;18.250;2023-04-19T03:59:55;7.17;;;3.93;;
23506;SDS011;11930;53.076;18.250;2023-04-19T04:02:22;7.57;;;4.00;;
23506;SDS011;11930;53.076;18.250;2023-04-19T04:04:52;9.70;;;4.10;;
23506;SDS011;11930;53.076;18.250;2023-04-19T04:07:19;9.77;;;4.33;;
23506;SDS011;11930;53.076;18.250;2023-04-19T04:09:48;7.40;;;4.37;;
23506;SDS011;11930;53.076;18.250;2023-04-19T04:12:14;11.00;;;4.67;;
23506;SDS011;11930;53.076;18.250;2023-04-19T04:14:41;15.10;;;4.53;;
23506;SDS011;11930;53.076;18.250;2023-04-19T04:17:09;7.77;;;4.23;;
23506;SDS011;11930;53.076;18.250;2023-04-19T04:19:36;9.03;;;4.37;;
23506;SDS011;11930;53.076;18.250;2023-04-19T04:22:03;9.67;;;5.20;;
23506;SDS011;11930;53.076;18.250;2023-04-19T04:24:38;11.97;;;4.93;;
23506;SDS011;11930;53.076;18.250;2023-04-19T04:27:17;9.17;;;4.70;;
23506;SDS011;11930;53.076;18.250;2023-04-19T04:29:47;11.37;;;4.83;;
23506;SDS011;11930;53.076;18.250;2023-04-19T04:32:14;10.07;;;5.07;;
23506;SDS011;11930;53.076;18.250;2023-04-19T04:34:43;10.23;;;4.77;;
23506;SDS011;11930;53.076;18.250;2023-04-19T04:37:21;11.67;;;5.83;;
23506;SDS011;11930;53.076;18.250;2023-04-19T04:39:49;10.60;;;5.17;;
23506;SDS011;11930;53.076;18.250;2023-04-19T04:42:15;13.50;;;5.23;;
23506;SDS011;11930;53.076;18.250;2023-04-19T04:44:42;11.70;;;5.47;;
23506;SDS011;11930;53.076;18.250;2023-04-19T04:47:11;12.90;;;6.07;;
23506;SDS011;11930;53.076;18.250;2023-04-19T04:49:44;14.10;;;6.03;;
23506;SDS011;11930;53.076;18.250;2023-04-19T04:52:10;11.20;;;5.57;;
23506;SDS011;11930;53.076;18.250;2023-04-19T04:54:45;13.17;;;5.37;;
23506;SDS011;11930;53.076;18.250;2023-04-19T04:57:21;13.37;;;5.80;;
23506;SDS011;11930;53.076;18.250;2023-04-19T04:59:47;11.90;;;5.30;;
23506;SDS011;11930;53.076;18.250;2023-04-19T05:02:16;11.53;;;5.40;;
23506;SDS011;11930;53.076;18.250;2023-04-19T05:04:43;10.13;;;5.07;;
23506;SDS011;11930;53.076;18.250;2023-04-19T05:07:09;10.03;;;5.30;;
23506;SDS011;11930;53.076;18.250;2023-04-19T05:09:36;12.67;;;5.13;;
23506;SDS011;11930;53.076;18.250;2023-04-19T05:12:03;10.50;;;4.80;;
23506;SDS011;11930;53.076;18.250;2023-04-19T05:14:30;14.77;;;5.13;;
23506;SDS011;11930;53.076;18.250;2023-04-19T05:16:56;8.50;;;4.30;;
23506;SDS011;11930;53.076;18.250;2023-04-19T05:19:23;10.40;;;5.20;;
23506;SDS011;11930;53.076;18.250;2023-04-19T05:21:55;10.40;;;5.07;;
23506;SDS011;11930;53.076;18.250;2023-04-19T05:24:22;11.03;;;4.70;;
23506;SDS011;11930;53.076;18.250;2023-04-19T05:26:49;9.77;;;4.33;;
23506;SDS011;11930;53.076;18.250;2023-04-19T05:29:16;9.87;;;5.50;;
23506;SDS011;11930;53.076;18.250;2023-04-19T05:31:45;9.63;;;4.27;;
23506;SDS011;11930;53.076;18.250;2023-04-19T05:34:22;7.83;;;4.47;;
23506;SDS011;11930;53.076;18.250;2023-04-19T05:36:49;9.40;;;4.07;;
23506;SDS011;11930;53.076;18.250;2023-04-19T05:39:16;11.30;;;4.63;;
23506;SDS011;11930;53.076;18.250;2023-04-19T05:41:42;8.97;;;3.63;;
23506;SDS011;11930;53.076;18.250;2023-04-19T05:44:09;8.40;;;3.50;;
23506;SDS011;11930;53.076;18.250;2023-04-19T05:46:35;12.00;;;3.73;;
23506;SDS011;11930;53.076;18.250;2023-04-19T05:49:02;10.67;;;3.53;;
23506;SDS011;11930;53.076;18.250;2023-04-19T05:51:47;9.67;;;3.90;;
23506;SDS011;11930;53.076;18.250;2023-04-19T05:54:29;10.97;;;3.63;;
23506;SDS011;11930;53.076;18.250;2023-04-19T05:56:58;7.97;;;4.60;;
23506;SDS011;11930;53.076;18.250;2023-04-19T05:59:25;11.93;;;3.77;;
23506;SDS011;11930;53.076;18.250;2023-04-19T06:01:51;8.93;;;3.70;;
23506;SDS011;11930;53.076;18.250;2023-04-19T06:04:17;7.27;;;3.57;;
23506;SDS011;11930;53.076;18.250;2023-04-19T06:06:43;8.43;;;3.77;;
23506;SDS011;11930;53.076;18.250;2023-04-19T06:09:13;8.60;;;3.73;;
23506;SDS011;11930;53.076;18.250;2023-04-19T06:11:39;8.20;;;3.53;;
23506;SDS011;11930;53.076;18.250;2023-04-19T06:14:07;7.80;;;3.50;;
23506;SDS011;11930;53.076;18.250;2023-04-19T06:16:34;7.27;;;3.30;;
23506;SDS011;11930;53.076;18.250;2023-04-19T06:19:00;9.63;;;3.30;;
23506;SDS011;11930;53.076;18.250;2023-04-19T06:21:28;10.87;;;3.43;;
23506;SDS011;11930;53.076;18.250;2023-04-19T06:23:55;8.63;;;3.47;;
23506;SDS011;11930;53.076;18.250;2023-04-19T06:26:22;7.83;;;4.07;;
23506;SDS011;11930;53.076;18.250;2023-04-19T06:28:48;12.53;;;3.57;;
23506;SDS011;11930;53.076;18.250;2023-04-19T06:31:15;10.03;;;3.73;;
23506;SDS011;11930;53.076;18.250;2023-04-19T06:33:41;10.67;;;3.83;;
23506;SDS011;11930;53.076;18.250;2023-04-19T06:36:07;9.87;;;4.00;;
23506;SDS011;11930;53.076;18.250;2023-04-19T06:38:33;8.13;;;3.50;;
23506;SDS011;11930;53.076;18.250;2023-04-19T06:41:00;9.47;;;3.97;;
23506;SDS011;11930;53.076;18.250;2023-04-19T06:43:26;8.27;;;4.03;;
23506;SDS011;11930;53.076;18.250;2023-04-19T06:45:58;8.67;;;4.00;;
23506;SDS011;11930;53.076;18.250;2023-04-19T06:48:25;11.07;;;3.43;;
23506;SDS011;11930;53.076;18.250;2023-04-19T06:50:52;9.17;;;4.10;;
23506;SDS011;11930;53.076;18.250;2023-04-19T06:53:19;9.10;;;4.43;;
23506;SDS011;11930;53.076;18.250;2023-04-19T06:55:45;8.27;;;4.53;;
23506;SDS011;11930;53.076;18.250;2023-04-19T06:58:12;12.83;;;5.77;;
23506;SDS011;11930;53.076;18.250;2023-04-19T07:00:38;11.87;;;4.50;;
23506;SDS011;11930;53.076;18.250;2023-04-19T07:03:05;13.17;;;6.60;;
23506;SDS011;11930;53.076;18.250;2023-04-19T07:05:31;11.00;;;5.43;;
23506;SDS011;11930;53.076;18.250;2023-04-19T07:07:57;17.03;;;9.23;;
23506;SDS011;11930;53.076;18.250;2023-04-19T07:10:23;10.83;;;6.00;;
23506;SDS011;11930;53.076;18.250;2023-04-19T07:12:50;27.50;;;14.03;;
23506;SDS011;11930;53.076;18.250;2023-04-19T07:15:16;14.63;;;8.40;;
23506;SDS011;11930;53.076;18.250;2023-04-19T07:17:42;14.43;;;7.23;;
23506;SDS011;11930;53.076;18.250;2023-04-19T07:20:08;14.47;;;6.33;;
23506;SDS011;11930;53.076;18.250;2023-04-19T07:22:35;11.27;;;5.60;;
23506;SDS011;11930;53.076;18.250;2023-04-19T07:25:01;10.87;;;6.57;;
23506;SDS011;11930;53.076;18.250;2023-04-19T07:27:28;10.30;;;6.20;;
23506;SDS011;11930;53.076;18.250;2023-04-19T07:29:54;13.23;;;5.43;;
23506;SDS011;11930;53.076;18.250;2023-04-19T07:32:20;13.63;;;5.93;;
23506;SDS011;11930;53.076;18.250;2023-04-19T07:34:46;10.40;;;5.23;;
23506;SDS011;11930;53.076;18.250;2023-04-19T07:37:13;9.60;;;5.03;;
23506;SDS011;11930;53.076;18.250;2023-04-19T07:39:39;11.17;;;5.50;;
23506;SDS011;11930;53.076;18.250;2023-04-19T07:42:05;15.47;;;7.37;;
23506;SDS011;11930;53.076;18.250;2023-04-19T07:44:32;24.33;;;14.33;;
23506;SDS011;11930;53.076;18.250;2023-04-19T07:46:58;19.60;;;10.53;;
23506;SDS011;11930;53.076;18.250;2023-04-19T07:49:24;22.63;;;12.17;;
23506;SDS011;11930;53.076;18.250;2023-04-19T07:51:51;27.47;;;15.27;;
23506;SDS011;11930;53.076;18.250;2023-04-19T07:54:17;15.40;;;7.80;;
23506;SDS011;11930;53.076;18.250;2023-04-19T07:56:46;10.37;;;5.40;;
23506;SDS011;11930;53.076;18.250;2023-04-19T07:59:12;9.77;;;5.57;;
23506;SDS011;11930;53.076;18.250;2023-04-19T08:01:39;9.37;;;5.43;;
23506;SDS011;11930;53.076;18.250;2023-04-19T08:04:05;11.13;;;5.63;;
23506;SDS011;11930;53.076;18.250;2023-04-19T08:06:32;11.87;;;5.87;;
23506;SDS011;11930;53.076;18.250;2023-04-19T08:08:59;19.80;;;9.17;;
23506;SDS011;11930;53.076;18.250;2023-04-19T08:11:25;24.07;;;9.93;;
23506;SDS011;11930;53.076;18.250;2023-04-19T08:13:52;15.87;;;6.37;;
23506;SDS011;11930;53.076;18.250;2023-04-19T08:16:18;16.80;;;7.87;;
23506;SDS011;11930;53.076;18.250;2023-04-19T08:18:45;18.40;;;8.37;;
23506;SDS011;11930;53.076;18.250;2023-04-19T08:21:16;19.33;;;9.07;;
23506;SDS011;11930;53.076;18.250;2023-04-19T08:23:42;16.37;;;7.43;;
23506;SDS011;11930;53.076;18.250;2023-04-19T08:26:09;14.63;;;7.20;;
23506;SDS011;11930;53.076;18.250;2023-04-19T08:28:35;23.13;;;10.67;;
23506;SDS011;11930;53.076;18.250;2023-04-19T08:31:04;25.07;;;10.80;;
23506;SDS011;11930;53.076;18.250;2023-04-19T08:33:31;23.77;;;12.43;;
23506;SDS011;11930;53.076;18.250;2023-04-19T08:35:58;30.63;;;16.33;;
23506;SDS011;11930;53.076;18.250;2023-04-19T08:38:25;21.33;;;10.37;;
23506;SDS011;11930;53.076;18.250;2023-04-19T08:40:52;11.63;;;6.20;;
23506;SDS011;11930;53.076;18.250;2023-04-19T08:43:22;10.40;;;5.10;;
23506;SDS011;11930;53.076;18.250;2023-04-19T08:45:50;9.50;;;6.03;;
23506;SDS011;11930;53.076;18.250;2023-04-19T08:48:16;9.93;;;4.90;;
23506;SDS011;11930;53.076;18.250;2023-04-19T08:50:43;9.77;;;5.07;;
23506;SDS011;11930;53.076;18.250;2023-04-19T08:53:12;11.20;;;5.47;;
23506;SDS011;11930;53.076;18.250;2023-04-19T08:55:41;10.43;;;4.80;;
23506;SDS011;11930;53.076;18.250;2023-04-19T08:58:10;10.50;;;5.90;;
23506;SDS011;11930;53.076;18.250;2023-04-19T09:00:37;14.03;;;6.50;;
23506;SDS011;11930;53.076;18.250;2023-04-19T09:03:05;10.33;;;6.03;;
23506;SDS011;11930;53.076;18.250;2023-04-19T09:05:33;11.13;;;6.93;;
23506;SDS011;11930;53.076;18.250;2023-04-19T09:10:57;11.33;;;5.87;;
23506;SDS011;11930;53.076;18.250;2023-04-19T09:13:25;11.83;;;6.50;;
23506;SDS011;11930;53.076;18.250;2023-04-19T09:15:52;12.77;;;6.83;;
23506;SDS011;11930;53.076;18.250;2023-04-19T09:18:21;14.43;;;6.93;;
23506;SDS011;11930;53.076;18.250;2023-04-19T09:20:50;14.10;;;7.50;;
23506;SDS011;11930;53.076;18.250;2023-04-19T09:23:22;15.83;;;6.73;;
23506;SDS011;11930;53.076;18.250;2023-04-19T09:25:53;15.17;;;7.00;;
23506;SDS011;11930;53.076;18.250;2023-04-19T09:28:29;13.23;;;6.53;;
23506;SDS011;11930;53.076;18.250;2023-04-19T09:30:56;15.17;;;6.87;;
23506;SDS011;11930;53.076;18.250;2023-04-19T09:33:32;14.97;;;7.30;;
23506;SDS011;11930;53.076;18.250;2023-04-19T09:35:59;16.30;;;7.60;;
23506;SDS011;11930;53.076;18.250;2023-04-19T09:38:26;17.13;;;7.03;;
23506;SDS011;11930;53.076;18.250;2023-04-19T09:41:04;22.00;;;8.83;;
23506;SDS011;11930;53.076;18.250;2023-04-19T09:43:33;36.77;;;12.43;;
23506;SDS011;11930;53.076;18.250;2023-04-19T09:46:00;39.53;;;13.17;;
23506;SDS011;11930;53.076;18.250;2023-04-19T09:48:26;33.40;;;11.77;;
23506;SDS011;11930;53.076;18.250;2023-04-19T09:50:54;16.73;;;8.10;;
23506;SDS011;11930;53.076;18.250;2023-04-19T09:53:21;28.87;;;9.73;;
23506;SDS011;11930;53.076;18.250;2023-04-19T09:55:48;13.73;;;6.17;;
23506;SDS011;11930;53.076;18.250;2023-04-19T09:58:15;12.57;;;6.13;;
23506;SDS011;11930;53.076;18.250;2023-04-19T10:00:45;9.70;;;5.60;;
23506;SDS011;11930;53.076;18.250;2023-04-19T10:03:15;18.57;;;6.90;;
23506;SDS011;11930;53.076;18.250;2023-04-19T10:05:43;20.80;;;8.90;;
23506;SDS011;11930;53.076;18.250;2023-04-19T10:08:10;17.03;;;7.60;;
23506;SDS011;11930;53.076;18.250;2023-04-19T10:10:38;13.65;;;6.70;;
23506;SDS011;11930;53.076;18.250;2023-04-19T10:13:06;18.77;;;7.20;;
23506;SDS011;11930;53.076;18.250;2023-04-19T10:15:35;18.20;;;7.17;;
23506;SDS011;11930;53.076;18.250;2023-04-19T10:18:03;13.77;;;6.60;;
23506;SDS011;11930;53.076;18.250;2023-04-19T10:20:36;21.17;;;7.70;;
23506;SDS011;11930;53.076;18.250;2023-04-19T10:23:06;22.40;;;7.70;;
23506;SDS011;11930;53.076;18.250;2023-04-19T10:25:35;41.43;;;17.50;;
23506;SDS011;11930;53.076;18.250;2023-04-19T10:28:05;19.67;;;7.73;;
23506;SDS011;11930;53.076;18.250;2023-04-19T10:30:31;14.73;;;7.47;;
23506;SDS011;11930;53.076;18.250;2023-04-19T10:32:58;12.93;;;5.83;;
23506;SDS011;11930;53.076;18.250;2023-04-19T10:35:32;13.93;;;6.43;;
23506;SDS011;11930;53.076;18.250;2023-04-19T10:38:08;10.47;;;5.80;;
23506;SDS011;11930;53.076;18.250;2023-04-19T10:43:42;9.83;;;5.33;;
23506;SDS011;11930;53.076;18.250;2023-04-19T10:46:14;12.40;;;6.33;;
23506;SDS011;11930;53.076;18.250;2023-04-19T10:48:53;12.80;;;6.60;;
23506;SDS011;11930;53.076;18.250;2023-04-19T10:51:25;13.60;;;7.10;;
23506;SDS011;11930;53.076;18.250;2023-04-19T10:53:59;11.97;;;7.10;;
23506;SDS011;11930;53.076;18.250;2023-04-19T11:01:39;11.33;;;5.60;;
23506;SDS011;11930;53.076;18.250;2023-04-19T11:09:21;12.57;;;6.80;;
23506;SDS011;11930;53.076;18.250;2023-04-19T11:12:15;11.10;;;6.87;;
23506;SDS011;11930;53.076;18.250;2023-04-19T11:14:52;10.40;;;6.37;;
23506;SDS011;11930;53.076;18.250;2023-04-19T11:17:22;11.70;;;6.03;;
23506;SDS011;11930;53.076;18.250;2023-04-19T11:22:37;11.97;;;6.40;;
23506;SDS011;11930;53.076;18.250;2023-04-19T11:27:31;11.73;;;6.03;;
23506;SDS011;11930;53.076;18.250;2023-04-19T11:30:16;12.00;;;6.27;;
23506;SDS011;11930;53.076;18.250;2023-04-19T11:32:47;9.40;;;5.47;;
23506;SDS011;11930;53.076;18.250;2023-04-19T11:35:21;10.23;;;5.93;;
23506;SDS011;11930;53.076;18.250;2023-04-19T11:37:49;11.23;;;5.80;;
23506;SDS011;11930;53.076;18.250;2023-04-19T11:40:16;10.43;;;5.33;;
23506;SDS011;11930;53.076;18.250;2023-04-19T11:42:43;6.93;;;3.97;;
23506;SDS011;11930;53.076;18.250;2023-04-19T11:45:10;6.97;;;4.10;;
23506;SDS011;11930;53.076;18.250;2023-04-19T11:47:46;6.83;;;4.17;;
23506;SDS011;11930;53.076;18.250;2023-04-19T11:53:01;7.17;;;4.40;;
23506;SDS011;11930;53.076;18.250;2023-04-19T11:55:48;6.67;;;4.20;;
23506;SDS011;11930;53.076;18.250;2023-04-19T12:01:11;7.50;;;4.20;;
23506;SDS011;11930;53.076;18.250;2023-04-19T12:06:11;7.33;;;4.13;;
23506;SDS011;11930;53.076;18.250;2023-04-19T12:08:48;7.47;;;4.37;;
23506;SDS011;11930;53.076;18.250;2023-04-19T12:11:16;8.67;;;4.53;;
23506;SDS011;11930;53.076;18.250;2023-04-19T12:16:36;8.40;;;4.00;;
23506;SDS011;11930;53.076;18.250;2023-04-19T12:19:13;5.77;;;3.97;;
23506;SDS011;11930;53.076;18.250;2023-04-19T12:21:41;6.63;;;4.40;;
23506;SDS011;11930;53.076;18.250;2023-04-19T12:24:08;8.50;;;4.50;;
23506;SDS011;11930;53.076;18.250;2023-04-19T12:26:35;7.50;;;4.33;;
23506;SDS011;11930;53.076;18.250;2023-04-19T12:29:02;7.40;;;4.47;;
23506;SDS011;11930;53.076;18.250;2023-04-19T12:31:29;6.60;;;4.17;;
23506;SDS011;11930;53.076;18.250;2023-04-19T12:33:59;5.97;;;3.77;;
23506;SDS011;11930;53.076;18.250;2023-04-19T12:36:25;8.17;;;4.40;;
23506;SDS011;11930;53.076;18.250;2023-04-19T12:38:52;6.90;;;4.20;;
23506;SDS011;11930;53.076;18.250;2023-04-19T12:41:18;7.77;;;4.53;;
23506;SDS011;11930;53.076;18.250;2023-04-19T12:43:45;7.47;;;5.00;;
23506;SDS011;11930;53.076;18.250;2023-04-19T12:46:12;9.03;;;5.20;;
23506;SDS011;11930;53.076;18.250;2023-04-19T12:48:38;8.93;;;4.40;;
23506;SDS011;11930;53.076;18.250;2023-04-19T12:51:04;8.63;;;5.07;;
23506;SDS011;11930;53.076;18.250;2023-04-19T12:53:31;8.67;;;4.90;;
23506;SDS011;11930;53.076;18.250;2023-04-19T12:55:58;8.43;;;4.57;;
23506;SDS011;11930;53.076;18.250;2023-04-19T12:58:24;9.00;;;4.80;;
23506;SDS011;11930;53.076;18.250;2023-04-19T13:00:52;7.97;;;4.80;;
23506;SDS011;11930;53.076;18.250;2023-04-19T13:03:18;12.07;;;6.27;;
23506;SDS011;11930;53.076;18.250;2023-04-19T13:05:44;15.83;;;6.50;;
23506;SDS011;11930;53.076;18.250;2023-04-19T13:08:11;9.13;;;5.80;;
23506;SDS011;11930;53.076;18.250;2023-04-19T13:10:37;10.17;;;6.50;;
23506;SDS011;11930;53.076;18.250;2023-04-19T13:13:03;9.47;;;5.57;;
23506;SDS011;11930;53.076;18.250;2023-04-19T13:15:29;8.90;;;5.17;;
23506;SDS011;11930;53.076;18.250;2023-04-19T13:17:56;9.27;;;6.10;;
23506;SDS011;11930;53.076;18.250;2023-04-19T13:20:22;10.00;;;5.77;;
23506;SDS011;11930;53.076;18.250;2023-04-19T13:22:48;10.17;;;5.70;;
23506;SDS011;11930;53.076;18.250;2023-04-19T13:25:15;10.60;;;5.77;;
23506;SDS011;11930;53.076;18.250;2023-04-19T13:27:41;10.03;;;5.83;;
23506;SDS011;11930;53.076;18.250;2023-04-19T13:30:08;10.77;;;5.97;;
23506;SDS011;11930;53.076;18.250;2023-04-19T13:32:34;12.53;;;6.17;;
23506;SDS011;11930;53.076;18.250;2023-04-19T13:35:00;11.90;;;6.20;;
23506;SDS011;11930;53.076;18.250;2023-04-19T13:37:27;11.93;;;6.90;;
23506;SDS011;11930;53.076;18.250;2023-04-19T13:39:53;11.40;;;6.30;;
23506;SDS011;11930;53.076;18.250;2023-04-19T13:42:20;10.03;;;6.57;;
23506;SDS011;11930;53.076;18.250;2023-04-19T13:44:47;11.13;;;5.80;;
23506;SDS011;11930;53.076;18.250;2023-04-19T13:47:13;11.30;;;6.70;;
23506;SDS011;11930;53.076;18.250;2023-04-19T13:49:40;12.17;;;7.30;;
23506;SDS011;11930;53.076;18.250;2023-04-19T13:52:06;11.30;;;7.20;;
23506;SDS011;11930;53.076;18.250;2023-04-19T13:54:33;12.93;;;7.30;;
23506;SDS011;11930;53.076;18.250;2023-04-19T13:57:00;16.53;;;8.30;;
23506;SDS011;11930;53.076;18.250;2023-04-19T13:59:27;14.83;;;8.03;;
23506;SDS011;11930;53.076;18.250;2023-04-19T14:01:54;13.97;;;8.40;;
23506;SDS011;11930;53.076;18.250;2023-04-19T14:04:21;13.77;;;8.30;;
23506;SDS011;11930;53.076;18.250;2023-04-19T14:06:47;11.20;;;6.57;;
23506;SDS011;11930;53.076;18.250;2023-04-19T14:09:14;12.30;;;7.20;;
23506;SDS011;11930;53.076;18.250;2023-04-19T14:11:40;13.20;;;7.27;;
23506;SDS011;11930;53.076;18.250;2023-04-19T14:14:06;11.90;;;6.30;;
23506;SDS011;11930;53.076;18.250;2023-04-19T14:16:33;12.13;;;7.27;;
23506;SDS011;11930;53.076;18.250;2023-04-19T14:18:59;13.13;;;6.63;;
23506;SDS011;11930;53.076;18.250;2023-04-19T14:21:26;12.00;;;6.77;;
23506;SDS011;11930;53.076;18.250;2023-04-19T14:23:52;10.83;;;6.73;;
23506;SDS011;11930;53.076;18.250;2023-04-19T14:26:19;7.93;;;5.37;;
23506;SDS011;11930;53.076;18.250;2023-04-19T14:28:45;8.80;;;5.63;;
23506;SDS011;11930;53.076;18.250;2023-04-19T14:31:12;9.03;;;5.87;;
23506;SDS011;11930;53.076;18.250;2023-04-19T14:33:38;11.13;;;6.53;;
23506;SDS011;11930;53.076;18.250;2023-04-19T14:36:04;9.17;;;5.80;;
23506;SDS011;11930;53.076;18.250;2023-04-19T14:38:31;10.97;;;6.47;;
23506;SDS011;11930;53.076;18.250;2023-04-19T14:40:58;12.10;;;7.20;;
23506;SDS011;11930;53.076;18.250;2023-04-19T14:43:24;13.60;;;7.00;;
23506;SDS011;11930;53.076;18.250;2023-04-19T14:45:51;13.00;;;7.23;;
23506;SDS011;11930;53.076;18.250;2023-04-19T14:48:18;14.20;;;7.50;;
23506;SDS011;11930;53.076;18.250;2023-04-19T14:50:44;11.70;;;7.07;;
23506;SDS011;11930;53.076;18.250;2023-04-19T14:53:11;11.17;;;6.20;;
23506;SDS011;11930;53.076;18.250;2023-04-19T14:55:38;11.60;;;6.70;;
23506;SDS011;11930;53.076;18.250;2023-04-19T14:58:04;9.43;;;6.47;;
23506;SDS011;11930;53.076;18.250;2023-04-19T15:00:31;12.50;;;6.60;;
23506;SDS011;11930;53.076;18.250;2023-04-19T15:02:57;10.70;;;5.83;;
23506;SDS011;11930;53.076;18.250;2023-04-19T15:05:24;11.00;;;6.63;;